createdAt,value
2023-01-27T00:05:19.065Z,21.27
2023-01-27T00:13:32.198Z,19.15
2023-01-27T00:21:49.916Z,19.38
2023-01-27T00:29:57.904Z,16.88
2023-01-27T00:38:05.648Z,20.85
2023-01-27T00:46:14.024Z,20.30
2023-01-27T00:54:19.590Z,22.73
2023-01-27T01:02:27.778Z,20.23
2023-01-27T01:10:33.541Z,19.80
2023-01-27T01:18:41.920Z,22.63
2023-01-27T01:27:32.432Z,21.30
2023-01-27T01:35:44.974Z,18.23
2023-01-27T01:43:50.788Z,17.60
2023-01-27T01:52:03.264Z,18.98
2023-01-27T02:00:16.180Z,19.58
2023-01-27T02:16:35.649Z,20.77
2023-01-27T02:24:50.652Z,18.77
2023-01-27T02:32:59.089Z,19.50
2023-01-27T02:41:10.325Z,20.02
2023-01-27T02:49:22.007Z,21.13
2023-01-27T02:57:29.993Z,17.77
2023-01-27T03:06:04.365Z,18.52
2023-01-27T03:14:10.913Z,18.98
2023-01-27T03:22:20.423Z,20.67
2023-01-27T03:30:26.190Z,18.23
2023-01-27T03:38:56.089Z,20.95
2023-01-27T03:47:01.751Z,24.90
2023-01-27T03:55:11.643Z,18.70
2023-01-27T04:03:29.654Z,18.67
2023-01-27T04:11:50.161Z,26.08
2023-01-27T04:19:55.772Z,26.02
2023-01-27T04:28:03.992Z,29.60
2023-01-27T04:36:10.091Z,27.58
2023-01-27T04:44:20.462Z,28.35
2023-01-27T04:52:25.859Z,22.65
2023-01-27T05:00:34.166Z,23.58
2023-01-27T05:08:39.700Z,25.77
2023-01-27T05:16:48.400Z,36.28
2023-01-27T05:24:53.823Z,30.05
2023-01-27T05:33:01.959Z,30.00
2023-01-27T05:41:09.099Z,30.98
2023-01-27T05:49:21.012Z,28.55
2023-01-27T05:57:26.805Z,32.42
2023-01-27T06:05:36.216Z,32.25
2023-01-27T06:13:44.224Z,31.70
2023-01-27T06:21:52.371Z,29.13
2023-01-27T06:29:59.586Z,28.05
2023-01-27T06:38:13.004Z,26.58
2023-01-27T06:46:18.744Z,19.98
2023-01-27T06:54:33.725Z,27.48
2023-01-27T07:02:39.418Z,25.48
2023-01-27T07:10:54.753Z,27.27
2023-01-27T07:19:00.334Z,23.63
2023-01-27T07:27:10.696Z,27.15
2023-01-27T07:35:16.405Z,30.60
2023-01-27T07:43:27.855Z,29.23
2023-01-27T07:51:33.476Z,23.27
2023-01-27T07:59:47.677Z,23.60
2023-01-27T08:08:04.063Z,18.95
2023-01-27T08:16:16.597Z,19.52
2023-01-27T08:24:22.207Z,23.77
2023-01-27T08:32:49.464Z,21.60
2023-01-27T08:41:18.139Z,17.42
2023-01-27T08:49:32.281Z,14.55
2023-01-27T08:58:21.678Z,18.77
2023-01-27T09:06:38.779Z,17.27
2023-01-27T09:15:28.590Z,15.55
2023-01-27T09:23:58.105Z,17.08
2023-01-27T09:32:04.169Z,19.58
2023-01-27T09:40:20.287Z,18.73
2023-01-27T09:48:50.867Z,17.98
2023-01-27T09:57:10.880Z,16.38
2023-01-27T10:05:44.779Z,16.23
2023-01-27T10:22:14.623Z,20.67
2023-01-27T10:30:28.768Z,18.90
2023-01-27T10:38:42.113Z,25.80
2023-01-27T10:46:57.798Z,22.38
2023-01-27T10:55:08.510Z,23.98
2023-01-27T11:03:21.790Z,25.77
2023-01-27T11:11:41.112Z,24.27
2023-01-27T11:19:59.722Z,26.00
2023-01-27T11:28:14.136Z,23.48
2023-01-27T11:36:22.149Z,18.08
2023-01-27T11:44:30.622Z,18.70
2023-01-27T11:52:38.556Z,18.05
2023-01-27T12:00:48.250Z,19.90
2023-01-27T12:08:56.231Z,18.67
2023-01-27T12:17:04.955Z,21.05
2023-01-27T12:25:22.650Z,22.77
2023-01-27T12:33:33.114Z,23.50
2023-01-27T12:41:41.554Z,23.70
2023-01-27T12:49:46.878Z,24.42
2023-01-27T12:57:54.962Z,25.58
2023-01-27T13:06:02.912Z,35.80
2023-01-27T13:14:20.367Z,22.58
2023-01-27T13:22:27.779Z,26.27
2023-01-27T13:30:40.577Z,23.60
2023-01-27T13:38:52.555Z,27.17
2023-01-27T13:47:08.845Z,28.58
2023-01-27T13:55:16.357Z,25.48
2023-01-27T14:03:50.408Z,29.50
2023-01-27T14:12:03.499Z,31.10
2023-01-27T14:20:24.884Z,37.47
2023-01-27T14:28:39.323Z,35.85
2023-01-27T14:36:53.764Z,25.40
2023-01-27T14:45:06.508Z,30.25
2023-01-27T14:53:36.993Z,31.02
2023-01-27T15:01:51.907Z,39.47
2023-01-27T15:10:11.655Z,42.13
2023-01-27T15:18:31.371Z,40.50
2023-01-27T15:26:40.744Z,30.98
2023-01-27T15:34:47.086Z,32.75
2023-01-27T15:43:05.559Z,33.00
2023-01-27T15:51:17.287Z,29.23
2023-01-27T15:59:30.594Z,32.25
2023-01-27T16:07:38.651Z,27.80
2023-01-27T16:15:47.147Z,26.15
2023-01-27T16:23:58.170Z,22.92
2023-01-27T16:32:09.534Z,16.13
2023-01-27T16:40:20.118Z,18.38
2023-01-27T16:48:33.534Z,23.23
2023-01-27T16:56:40.841Z,18.05
2023-01-27T17:04:53.345Z,19.08
2023-01-27T17:12:58.627Z,25.05
2023-01-27T17:21:07.401Z,30.65
2023-01-27T17:29:18.076Z,33.20
2023-01-27T17:37:27.335Z,27.02
2023-01-27T17:45:34.847Z,41.58
2023-01-27T17:53:44.782Z,21.02
2023-01-27T18:01:53.103Z,21.27
2023-01-27T18:10:03.537Z,24.73
2023-01-27T18:18:18.267Z,21.92
2023-01-27T18:26:29.867Z,10.80
2023-01-27T18:34:38.079Z,10.27
2023-01-27T18:42:46.005Z,9.18
2023-01-27T18:50:51.592Z,8.55
2023-01-27T18:58:59.563Z,10.00
2023-01-27T19:07:05.288Z,11.30
2023-01-27T19:15:16.202Z,16.30
2023-01-27T19:23:23.530Z,18.17
2023-01-27T19:31:31.571Z,13.80
2023-01-27T19:39:37.431Z,16.10
2023-01-27T19:47:47.248Z,13.98
2023-01-27T19:55:57.461Z,15.02
2023-01-27T20:04:06.386Z,11.35
2023-01-27T20:12:20.380Z,10.73
2023-01-27T20:20:30.218Z,11.75
2023-01-27T20:28:36.362Z,7.82
2023-01-27T20:36:44.486Z,8.20
2023-01-27T20:44:52.044Z,7.45
2023-01-27T20:53:00.597Z,12.02
2023-01-27T21:01:10.594Z,16.20
2023-01-27T21:09:18.573Z,16.27
2023-01-27T21:17:24.090Z,9.70
2023-01-27T21:25:33.552Z,8.68
2023-01-27T21:33:40.704Z,8.40
2023-01-27T21:42:01.312Z,13.45
2023-01-27T21:50:07.439Z,21.30
2023-01-27T21:58:16.104Z,29.25
2023-01-27T22:06:58.557Z,29.25
2023-01-27T22:15:27.195Z,31.25
2023-01-27T22:23:33.026Z,29.80
2023-01-27T22:31:42.142Z,28.60
2023-01-27T22:39:48.716Z,28.67
2023-01-27T22:47:56.645Z,22.65
2023-01-27T22:56:03.263Z,22.42
2023-01-27T23:04:14.685Z,20.50
2023-01-27T23:12:20.464Z,30.40
2023-01-27T23:20:28.507Z,26.40
2023-01-27T23:28:33.973Z,22.73
2023-01-27T23:36:41.963Z,12.77
2023-01-27T23:44:47.541Z,9.98
2023-01-27T23:52:55.786Z,11.15
